Time;durP1;ratioP1;P1;durP2;ratioP2;P2;SDS_P1;SDS_P2;PMS_P1;PMS_P2;Temp;Humidity;BMP_temperature;BMP_pressure;BME280_temperature;BME280_humidity;BME280_pressure;Samples;Min_cycle;Max_cycle;Signal;HPM_P1;HPM_P2
2022/11/17 00:01:50;;;;;;;5.63;2.10;;;;;;;-145.18;100.00;46670.16;5011489;28;20486;-68
2022/11/17 00:04:16;;;;;;;7.67;2.77;;;;;;;-145.18;100.00;46668.22;5011493;28;20041;-68
2022/11/17 00:06:41;;;;;;;7.03;2.60;;;;;;;-145.18;100.00;46664.31;5011243;28;20044;-68
2022/11/17 00:09:16;;;;;;;14.73;3.30;;;;;;;-145.18;100.00;46664.31;5011311;28;20038;-68
2022/11/17 00:14:39;;;;;;;6.83;3.90;;;;;;;-145.18;100.00;46664.31;5011333;28;20330;-68
2022/11/17 00:17:10;;;;;;;9.97;2.97;;;;;;;-145.18;100.00;46668.22;5011595;28;20298;-69
2022/11/17 00:22:19;;;;;;;8.03;3.23;;;;;;;-145.18;100.00;46664.31;5011857;28;20299;-68
2022/11/17 00:24:47;;;;;;;7.07;3.07;;;;;;;-145.18;100.00;46666.25;5010930;28;20775;-68
2022/11/17 00:27:12;;;;;;;6.30;3.17;;;;;;;-145.18;100.00;46664.31;5011573;28;20038;-68
2022/11/17 00:29:37;;;;;;;11.50;4.27;;;;;;;-145.18;100.00;46666.25;5011011;28;20275;-68
2022/11/17 00:34:47;;;;;;;10.70;4.80;;;;;;;-145.18;100.00;46666.25;5011062;28;20127;-68
2022/11/17 00:37:13;;;;;;;14.07;5.30;;;;;;;-145.18;100.00;46664.31;5011277;28;20743;-69
2022/11/17 00:39:39;;;;;;;9.33;5.40;;;;;;;-145.18;100.00;46670.16;5010971;28;20034;-68
2022/11/17 00:42:04;;;;;;;10.73;5.23;;;;;;;-145.18;100.00;46672.13;5010879;28;20282;-68
2022/11/17 00:44:30;;;;;;;13.73;5.30;;;;;;;-145.18;100.00;46668.22;5010800;28;20210;-69
2022/11/17 00:46:56;;;;;;;10.40;4.83;;;;;;;-145.18;100.00;46664.31;5010817;28;20038;-69
2022/11/17 00:49:25;;;;;;;10.83;5.40;;;;;;;-145.18;100.00;46664.31;5010732;28;20054;-69
2022/11/17 00:51:54;;;;;;;13.90;5.60;;;;;;;-145.18;100.00;46664.31;5010626;28;20029;-68
2022/11/17 00:54:20;;;;;;;9.93;5.43;;;;;;;-145.18;100.00;46662.34;5010537;28;20378;-69
2022/11/17 00:56:46;;;;;;;11.43;5.97;;;;;;;-145.18;100.00;46668.22;4992788;28;20736;-68
2022/11/17 00:59:12;;;;;;;16.37;7.50;;;;;;;-145.18;100.00;46666.25;4993150;28;20290;-69
2022/11/17 01:01:38;;;;;;;11.23;6.50;;;;;;;-145.18;100.00;46662.34;5010349;28;20045;-69
2022/11/17 01:04:05;;;;;;;12.10;6.97;;;;;;;-145.18;100.00;46666.25;5010731;28;20037;-69
2022/11/17 01:06:42;;;;;;;12.43;5.33;;;;;;;-145.18;100.00;46660.41;5010508;28;20295;-70
2022/11/17 01:09:13;;;;;;;9.17;4.57;;;;;;;-145.18;100.00;46662.34;5010551;28;20266;-70
2022/11/17 01:11:39;;;;;;;7.90;4.57;;;;;;;-145.18;100.00;46662.34;5009956;28;20346;-70
2022/11/17 01:14:05;;;;;;;5.83;4.63;;;;;;;-145.18;100.00;46668.22;5010565;28;20704;-70
2022/11/17 01:16:30;;;;;;;9.93;4.33;;;;;;;-145.18;100.00;46664.31;5010224;28;20034;-70
2022/11/17 01:18:59;;;;;;;8.30;4.27;;;;;;;-145.18;100.00;46670.16;5010261;28;20030;-70
2022/11/17 01:21:25;;;;;;;5.80;3.33;;;;;;;-145.18;100.00;46660.41;5010455;28;20080;-70
2022/11/17 01:23:53;;;;;;;5.50;3.37;;;;;;;-145.18;100.00;46668.22;5010293;28;20358;-70
2022/11/17 01:26:24;;;;;;;7.63;3.40;;;;;;;-145.18;100.00;46666.25;5010322;28;20287;-70
2022/11/17 01:28:50;;;;;;;8.33;2.97;;;;;;;-145.18;100.00;46666.25;5009838;28;20267;-69
2022/11/17 01:31:18;;;;;;;6.83;3.07;;;;;;;-145.18;100.00;46662.34;5010345;28;20259;-69
2022/11/17 01:33:45;;;;;;;7.90;2.83;;;;;;;-145.18;100.00;46664.31;5009913;28;20313;-69
2022/11/17 01:36:19;;;;;;;6.07;2.83;;;;;;;-145.18;100.00;46662.34;5010305;28;20279;-69
2022/11/17 01:38:44;;;;;;;5.60;3.17;;;;;;;-145.18;100.00;46668.22;5009817;28;20314;-69
2022/11/17 01:41:16;;;;;;;5.87;3.57;;;;;;;-145.18;100.00;46666.25;5010594;28;20034;-69
2022/11/17 01:43:42;;;;;;;6.70;3.07;;;;;;;-145.18;100.00;46666.25;5009558;28;20402;-69
2022/11/17 01:46:32;;;;;;;5.80;2.63;;;;;;;-145.18;100.00;46660.41;5010831;28;20080;-69
2022/11/17 01:49:05;;;;;;;6.13;2.40;;;;;;;-145.18;100.00;46668.22;5013808;28;20370;-69
2022/11/17 01:51:34;;;;;;;6.33;2.70;;;;;;;-145.18;100.00;46668.22;5014294;28;20083;-69
2022/11/17 01:54:00;;;;;;;7.37;2.57;;;;;;;-145.18;100.00;46666.25;5013644;28;20570;-69
2022/11/17 01:56:37;;;;;;;7.57;2.60;;;;;;;-145.18;100.00;46672.13;5013978;28;20045;-69
2022/11/17 01:59:14;;;;;;;5.23;2.40;;;;;;;-145.18;100.00;46672.13;5013674;28;20267;-70
2022/11/17 02:01:54;;;;;;;4.57;2.60;;;;;;;-145.18;100.00;46668.22;5013836;28;20463;-70
2022/11/17 02:04:22;;;;;;;5.73;2.20;;;;;;;-145.18;100.00;46670.16;5013749;28;20256;-70
2022/11/17 02:06:49;;;;;;;9.27;2.33;;;;;;;-145.18;100.00;46664.31;5013562;28;20364;-69
2022/11/17 02:09:14;;;;;;;6.20;2.13;;;;;;;-145.18;100.00;46664.31;5013250;28;20490;-70
2022/11/17 02:11:40;;;;;;;8.67;2.43;;;;;;;-145.18;100.00;46668.22;5013712;28;20076;-70
2022/11/17 02:14:05;;;;;;;6.50;2.03;;;;;;;-145.18;100.00;46670.16;5013600;28;20092;-70
2022/11/17 02:16:31;;;;;;;4.43;1.60;;;;;;;-145.18;100.00;46668.22;5013833;28;20528;-70
2022/11/17 02:18:56;;;;;;;4.27;1.70;;;;;;;-145.18;100.00;46670.16;4995338;28;20049;-70
2022/11/17 02:21:42;;;;;;;5.47;1.60;;;;;;;-145.18;100.00;46670.16;5013566;28;20034;-69
2022/11/17 02:24:30;;;;;;;6.50;2.03;;;;;;;-145.18;100.00;46668.22;5012840;28;20502;-69
2022/11/17 02:27:33;;;;;;;4.50;1.83;;;;;;;-145.18;100.00;46666.25;5013268;28;20549;-70
2022/11/17 02:30:03;;;;;;;5.27;2.10;;;;;;;-145.18;100.00;46666.25;5012966;28;20468;-70
2022/11/17 02:32:47;;;;;;;4.77;1.47;;;;;;;-145.18;100.00;46668.22;5013690;28;20527;-70
2022/11/17 02:35:13;;;;;;;6.70;1.73;;;;;;;-145.18;100.00;46668.22;5013380;28;20358;-69
2022/11/17 02:37:41;;;;;;;3.80;1.50;;;;;;;-145.18;100.00;46670.16;5013537;28;20164;-69
2022/11/17 02:40:16;;;;;;;3.83;1.30;;;;;;;-145.18;100.00;46668.22;5012869;28;20033;-70
2022/11/17 02:45:44;;;;;;;3.27;1.90;;;;;;;-145.18;100.00;46672.13;5013352;28;20096;-69
2022/11/17 02:48:15;;;;;;;3.40;1.30;;;;;;;-145.18;100.00;46670.16;5013089;28;20052;-70
2022/11/17 02:50:45;;;;;;;4.00;1.30;;;;;;;-145.18;100.00;46672.13;5012982;28;20034;-70
2022/11/17 02:53:11;;;;;;;8.07;1.20;;;;;;;-145.18;100.00;46672.13;5012960;28;20030;-70
2022/11/17 02:55:37;;;;;;;4.33;1.20;;;;;;;-145.18;100.00;46677.97;5013282;28;20070;-70
2022/11/17 02:58:02;;;;;;;7.10;1.30;;;;;;;-145.18;100.00;46674.06;5011567;28;20315;-70
2022/11/17 03:03:28;;;;;;;3.33;1.10;;;;;;;-145.18;100.00;46672.13;5134001;23;20043;-69
2022/11/17 03:06:15;;;;;;;3.00;0.97;;;;;;;-145.18;100.00;46670.16;5008660;28;20921;-70
2022/11/17 03:09:09;;;;;;;4.80;1.30;;;;;;;-145.18;100.00;46674.06;5012967;28;20105;-69
2022/11/17 03:11:44;;;;;;;2.83;0.90;;;;;;;-145.18;100.00;46676.03;5013292;28;20267;-69
2022/11/17 03:14:26;;;;;;;5.60;0.90;;;;;;;-145.18;100.00;46676.03;5012609;28;20033;-69
2022/11/17 03:17:10;;;;;;;6.10;1.60;;;;;;;-145.18;100.00;46676.03;5012701;28;20061;-69
2022/11/17 03:19:43;;;;;;;4.93;1.10;;;;;;;-145.18;100.00;46674.06;5012718;28;20037;-69
2022/11/17 03:22:20;;;;;;;5.60;0.97;;;;;;;-145.18;100.00;46668.22;5012726;28;20033;-69
2022/11/17 03:24:54;;;;;;;4.50;1.03;;;;;;;-145.18;100.00;46674.06;5012542;28;20132;-69
2022/11/17 03:27:30;;;;;;;7.53;0.97;;;;;;;-145.18;100.00;46670.16;5012652;28;20072;-69
2022/11/17 03:29:59;;;;;;;5.47;0.70;;;;;;;-145.18;100.00;46670.16;5012648;28;20053;-69
2022/11/17 03:32:29;;;;;;;2.50;0.83;;;;;;;-145.18;100.00;46676.03;5012318;28;20680;-69
2022/11/17 03:34:58;;;;;;;4.70;0.83;;;;;;;-145.18;100.00;46677.97;5012593;28;20267;-69
2022/11/17 03:37:30;;;;;;;5.67;0.80;;;;;;;-145.18;100.00;46679.94;5012341;28;20030;-69
2022/11/17 03:40:03;;;;;;;3.63;1.10;;;;;;;-145.18;100.00;46677.97;5012426;28;20038;-69
2022/11/17 03:42:32;;;;;;;5.17;0.77;;;;;;;-145.18;100.00;46677.97;5012438;28;20090;-69
2022/11/17 03:45:15;;;;;;;5.87;1.10;;;;;;;-145.18;100.00;46683.84;5011805;28;20041;-69
2022/11/17 03:47:43;;;;;;;1.70;0.60;;;;;;;-145.18;100.00;46672.13;5012018;28;20022;-68
2022/11/17 03:50:08;;;;;;;3.03;0.60;;;;;;;-145.18;100.00;46674.06;5003980;28;20426;-69
2022/11/17 03:52:35;;;;;;;5.70;0.90;;;;;;;-145.18;100.00;46674.06;5012010;28;20069;-69
2022/11/17 03:55:01;;;;;;;4.43;0.70;;;;;;;-145.18;100.00;46683.84;5011964;28;20081;-69
2022/11/17 03:57:55;;;;;;;2.07;0.60;;;;;;;-145.18;100.00;46677.97;5011723;28;20064;-70
2022/11/17 04:00:21;;;;;;;2.77;0.70;;;;;;;-145.18;100.00;46674.06;5012108;28;20121;-69
2022/11/17 04:02:52;;;;;;;3.87;0.77;;;;;;;-145.18;100.00;46679.94;4996632;28;20055;-70
2022/11/17 04:05:18;;;;;;;3.60;0.70;;;;;;;-145.18;100.00;46679.94;4992329;28;20042;-69
2022/11/17 04:07:46;;;;;;;1.30;0.60;;;;;;;-145.18;100.00;46683.84;4992216;28;20049;-69
2022/11/17 04:10:17;;;;;;;3.10;0.73;;;;;;;-145.18;100.00;46674.06;4991509;28;20033;-69
2022/11/17 04:18:12;;;;;;;4.80;1.63;;;;;;;-145.18;100.00;46677.97;4992185;28;20042;-69
2022/11/17 04:20:37;;;;;;;3.50;0.70;;;;;;;-145.18;100.00;46674.06;4992225;28;20038;-69
2022/11/17 04:23:07;;;;;;;3.10;0.70;;;;;;;-145.18;100.00;46672.13;4991347;28;20046;-69
2022/11/17 04:28:37;;;;;;;1.50;0.60;;;;;;;-145.18;100.00;46670.16;4992193;28;20609;-69
2022/11/17 04:31:07;;;;;;;4.63;0.83;;;;;;;-145.18;100.00;46674.06;4992138;28;20539;-68
2022/11/17 04:33:32;;;;;;;2.73;0.63;;;;;;;-145.18;100.00;46674.06;4991914;28;20474;-68
2022/11/17 04:35:58;;;;;;;3.93;0.77;;;;;;;-145.18;100.00;46672.13;4992174;28;20030;-68
2022/11/17 04:38:24;;;;;;;2.50;0.70;;;;;;;-145.18;100.00;46672.13;4991940;28;20746;-68
2022/11/17 04:43:41;;;;;;;7.30;1.20;;;;;;;-145.18;100.00;46677.97;4974993;28;20069;-68
2022/11/17 04:46:06;;;;;;;4.47;0.70;;;;;;;-145.18;100.00;46674.06;4994749;28;20121;-68
2022/11/17 04:48:32;;;;;;;2.03;0.63;;;;;;;-145.18;100.00;46676.03;4990511;28;20117;-68
2022/11/17 04:50:57;;;;;;;2.27;0.70;;;;;;;-145.18;100.00;46674.06;4992721;28;20084;-68
2022/11/17 04:53:23;;;;;;;1.97;0.70;;;;;;;-145.18;100.00;46674.06;4995448;28;20398;-68
2022/11/17 04:55:49;;;;;;;7.00;0.80;;;;;;;-145.18;100.00;46666.25;4993420;28;20686;-68
2022/11/17 04:58:14;;;;;;;5.43;0.70;;;;;;;-145.18;100.00;46676.03;5007120;28;20140;-68
2022/11/17 05:00:40;;;;;;;3.13;0.63;;;;;;;-145.18;100.00;46672.13;4989391;28;20362;-68
2022/11/17 05:03:05;;;;;;;5.83;1.43;;;;;;;-145.18;100.00;46672.13;4993031;28;20057;-69
2022/11/17 05:05:31;;;;;;;7.23;0.87;;;;;;;-145.18;100.00;46672.13;4998394;28;20054;-69
2022/11/17 05:07:56;;;;;;;4.30;0.80;;;;;;;-145.18;100.00;46674.06;4991811;28;20046;-68
2022/11/17 05:13:20;;;;;;;5.53;1.03;;;;;;;-145.18;100.00;46664.31;4975945;28;20086;-68
2022/11/17 05:13:20;;;;;;;5.03;1.00;;;;;;;-145.18;100.00;46672.13;4993999;28;20046;-68
2022/11/17 05:18:30;;;;;;;6.47;0.80;;;;;;;-145.18;100.00;46668.22;5010989;28;20398;-68
2022/11/17 05:21:01;;;;;;;7.40;0.87;;;;;;;-145.18;100.00;46670.16;5010015;28;20030;-68
2022/11/17 05:26:10;;;;;;;6.57;1.83;;;;;;;-145.18;100.00;46670.16;5010700;28;20077;-68
2022/11/17 05:28:35;;;;;;;8.97;1.00;;;;;;;-145.18;100.00;46666.25;5009905;28;20457;-68
2022/11/17 05:31:01;;;;;;;4.20;0.80;;;;;;;-145.18;100.00;46668.22;5010437;28;20034;-68
2022/11/17 05:33:26;;;;;;;6.13;0.90;;;;;;;-145.18;100.00;46666.25;5010356;28;20517;-68
2022/11/17 05:35:51;;;;;;;7.43;1.50;;;;;;;-145.18;100.00;46666.25;5010576;28;20034;-68
2022/11/17 05:38:17;;;;;;;6.93;1.20;;;;;;;-145.18;100.00;46664.31;5006889;28;20026;-68
2022/11/17 05:40:42;;;;;;;5.17;1.23;;;;;;;-145.18;100.00;46664.31;4991387;28;20517;-68
2022/11/17 05:43:07;;;;;;;7.90;1.40;;;;;;;-145.18;100.00;46668.22;4990813;28;20426;-68
2022/11/17 05:45:33;;;;;;;6.83;1.60;;;;;;;-145.18;100.00;46662.34;4990900;28;20422;-69
2022/11/17 05:47:58;;;;;;;7.67;1.57;;;;;;;-145.18;100.00;46668.22;4989194;28;20034;-69
2022/11/17 05:50:23;;;;;;;8.77;1.43;;;;;;;-145.18;100.00;46670.16;4990973;28;20034;-69
2022/11/17 05:52:49;;;;;;;9.43;1.70;;;;;;;-145.18;100.00;46662.34;4988989;28;20030;-69
2022/11/17 05:55:14;;;;;;;7.03;1.33;;;;;;;-145.18;100.00;46668.22;4990109;28;20054;-69
2022/11/17 05:57:40;;;;;;;7.37;1.47;;;;;;;-145.18;100.00;46664.31;4989540;28;20035;-69
2022/11/17 06:00:06;;;;;;;11.37;1.83;;;;;;;-145.18;100.00;46670.16;4990159;28;20054;-69
2022/11/17 06:02:38;;;;;;;8.57;1.47;;;;;;;-145.18;100.00;46674.06;4992228;28;20026;-69
2022/11/17 06:05:04;;;;;;;7.43;1.57;;;;;;;-145.18;100.00;46670.16;4992392;28;20031;-69
2022/11/17 06:07:29;;;;;;;11.97;2.30;;;;;;;-145.18;100.00;46670.16;4991981;28;20073;-69
2022/11/17 06:09:55;;;;;;;8.97;1.80;;;;;;;-145.18;100.00;46672.13;4990928;28;20471;-69
2022/11/17 06:12:20;;;;;;;8.20;1.50;;;;;;;-145.18;100.00;46670.16;4992415;28;20109;-69
2022/11/17 06:14:46;;;;;;;14.00;1.47;;;;;;;-145.18;100.00;46676.03;4991884;28;20045;-69
2022/11/17 06:17:27;;;;;;;6.70;1.80;;;;;;;-145.18;100.00;46676.03;4992455;28;20030;-69
2022/11/17 06:20:00;;;;;;;7.43;1.73;;;;;;;-145.18;100.00;46672.13;4991371;28;20490;-69
2022/11/17 06:22:26;;;;;;;9.17;1.50;;;;;;;-145.18;100.00;46677.97;4992418;28;20092;-69
2022/11/17 06:24:52;;;;;;;11.03;1.00;;;;;;;-145.18;100.00;46674.06;4991451;28;20487;-69
2022/11/17 06:27:17;;;;;;;10.47;1.20;;;;;;;-145.18;100.00;46670.16;4989861;28;20098;-69
2022/11/17 06:29:44;;;;;;;13.13;1.77;;;;;;;-145.18;100.00;46679.94;4990537;28;20443;-69
2022/11/17 06:32:09;;;;;;;7.17;1.90;;;;;;;-145.18;100.00;46674.06;4991065;28;20026;-69
2022/11/17 06:34:35;;;;;;;7.80;1.50;;;;;;;-145.18;100.00;46672.13;4994185;28;20088;-69
2022/11/17 06:37:00;;;;;;;9.03;2.00;;;;;;;-145.18;100.00;46679.94;4993809;28;20549;-69
2022/11/17 06:39:25;;;;;;;6.50;1.27;;;;;;;-145.18;100.00;46674.06;4994007;28;20048;-68
2022/11/17 06:41:51;;;;;;;4.00;1.07;;;;;;;-145.18;100.00;46679.94;4993927;28;20034;-68
2022/11/17 06:44:16;;;;;;;5.60;1.00;;;;;;;-145.18;100.00;46679.94;4994194;28;20442;-68
2022/11/17 06:46:41;;;;;;;3.77;1.07;;;;;;;-145.18;100.00;46685.78;4993652;28;20165;-67
2022/11/17 06:49:07;;;;;;;6.03;1.47;;;;;;;-145.18;100.00;46677.97;4993236;28;20038;-67
2022/11/17 06:51:34;;;;;;;8.87;1.90;;;;;;;-145.18;100.00;46679.94;4993835;28;20084;-67
2022/11/17 06:53:59;;;;;;;6.13;1.23;;;;;;;-145.18;100.00;46679.94;4991122;28;20035;-67
2022/11/17 06:56:24;;;;;;;2.07;0.90;;;;;;;-145.18;100.00;46674.06;4993932;28;20445;-67
2022/11/17 06:58:50;;;;;;;6.57;1.20;;;;;;;-145.18;100.00;46681.88;4993152;28;20107;-67
2022/11/17 07:01:15;;;;;;;3.90;1.03;;;;;;;-145.18;100.00;46681.88;4993569;28;20088;-66
2022/11/17 07:03:44;;;;;;;7.80;1.87;;;;;;;-145.18;100.00;46677.97;4993266;28;20058;-67
2022/11/17 07:06:10;;;;;;;3.07;0.80;;;;;;;-145.18;100.00;46676.03;4985509;28;20034;-67
2022/11/17 07:08:36;;;;;;;2.83;0.80;;;;;;;-145.18;100.00;46668.22;4993372;28;20279;-67
2022/11/17 07:11:03;;;;;;;5.33;1.20;;;;;;;-145.18;100.00;46685.78;4993374;28;20049;-67
2022/11/17 07:13:31;;;;;;;6.10;0.93;;;;;;;-145.18;100.00;46683.84;4986843;28;20121;-67
2022/11/17 07:16:08;;;;;;;4.67;0.90;;;;;;;-145.18;100.00;46685.78;4993038;28;20082;-67
2022/11/17 07:18:35;;;;;;;5.60;0.70;;;;;;;-145.18;100.00;46683.84;4993097;28;20641;-66
2022/11/17 07:21:05;;;;;;;4.30;1.00;;;;;;;-145.18;100.00;46679.94;4993033;28;20276;-66
2022/11/17 07:23:32;;;;;;;6.43;1.00;;;;;;;-145.18;100.00;46685.78;4996542;28;20271;-66
2022/11/17 07:25:58;;;;;;;3.67;0.83;;;;;;;-145.18;100.00;46679.94;4990650;28;20378;-66
2022/11/17 07:28:24;;;;;;;3.97;0.80;;;;;;;-145.18;100.00;46689.69;4992938;28;20272;-66
2022/11/17 07:30:49;;;;;;;7.23;1.30;;;;;;;-145.18;100.00;46679.94;4993062;28;20035;-66
2022/11/17 07:33:14;;;;;;;8.00;1.33;;;;;;;-145.18;100.00;46683.84;4992559;28;20041;-66
2022/11/17 07:35:40;;;;;;;7.23;1.20;;;;;;;-145.18;100.00;46687.75;4993253;28;20040;-66
2022/11/17 07:38:05;;;;;;;6.20;1.87;;;;;;;-145.18;100.00;46691.66;4989461;28;20042;-66
2022/11/17 07:40:31;;;;;;;6.30;1.00;;;;;;;-145.18;100.00;46685.78;4992765;28;20068;-66
2022/11/17 07:42:56;;;;;;;5.60;0.90;;;;;;;-145.18;100.00;46687.75;4991462;28;20526;-66
2022/11/17 07:45:23;;;;;;;2.70;1.00;;;;;;;-145.18;100.00;46683.84;4992028;28;20030;-66
2022/11/17 07:47:56;;;;;;;4.40;1.10;;;;;;;-145.18;100.00;46681.88;4992401;28;20042;-67
2022/11/17 07:50:22;;;;;;;3.67;1.30;;;;;;;-145.18;100.00;46679.94;4992423;28;20276;-67
2022/11/17 07:52:49;;;;;;;5.30;1.23;;;;;;;-145.18;100.00;46683.84;4992386;28;20272;-67
2022/11/17 07:55:15;;;;;;;8.10;1.20;;;;;;;-145.18;100.00;46685.78;4992038;28;20268;-67
2022/11/17 07:57:40;;;;;;;4.57;1.33;;;;;;;-145.18;100.00;46683.84;4990695;28;20419;-67
2022/11/17 08:00:06;;;;;;;4.03;0.80;;;;;;;-145.18;100.00;46681.88;4991698;28;20038;-67
2022/11/17 08:02:32;;;;;;;2.87;1.10;;;;;;;-145.18;100.00;46677.97;4992076;28;20034;-67
2022/11/17 08:04:57;;;;;;;5.13;1.00;;;;;;;-145.18;100.00;46679.94;4991311;28;20396;-67
2022/11/17 08:07:23;;;;;;;6.83;1.23;;;;;;;-145.18;100.00;46679.94;4984897;28;20085;-67
2022/11/17 08:09:48;;;;;;;3.90;1.17;;;;;;;-145.18;100.00;46681.88;4998253;28;20038;-66
2022/11/17 08:12:14;;;;;;;6.10;1.27;;;;;;;-145.18;100.00;46685.78;4991292;28;20041;-68
2022/11/17 08:14:40;;;;;;;7.63;1.73;;;;;;;-145.18;100.00;46691.66;4991608;28;20565;-67
2022/11/17 08:17:05;;;;;;;8.43;1.43;;;;;;;-145.18;100.00;46685.78;4990066;28;20300;-67
2022/11/17 08:19:31;;;;;;;8.17;1.07;;;;;;;-145.18;100.00;46679.94;4990933;28;20049;-66
2022/11/17 08:21:56;;;;;;;4.53;1.10;;;;;;;-145.18;100.00;46687.75;4991474;28;20546;-67
2022/11/17 08:24:22;;;;;;;4.70;1.40;;;;;;;-145.18;100.00;46683.84;4991422;28;20479;-67
2022/11/17 08:26:47;;;;;;;4.43;1.30;;;;;;;-145.18;100.00;46693.59;4991146;28;20470;-68
2022/11/17 08:29:12;;;;;;;3.03;1.07;;;;;;;-145.18;100.00;46685.78;4991140;28;20042;-69
2022/11/17 08:31:40;;;;;;;4.20;0.90;;;;;;;-145.18;100.00;46689.69;4991549;28;20431;-68
2022/11/17 08:34:05;;;;;;;5.60;1.00;;;;;;;-145.18;100.00;46687.75;4990965;28;20121;-66
2022/11/17 08:36:30;;;;;;;4.13;1.07;;;;;;;-145.18;100.00;46689.69;4991353;28;20519;-67
2022/11/17 08:38:56;;;;;;;5.60;0.87;;;;;;;-145.18;100.00;46693.59;4990734;28;20061;-66
2022/11/17 08:41:21;;;;;;;8.43;1.17;;;;;;;-145.18;100.00;46683.84;4991451;28;20038;-68
2022/11/17 08:43:46;;;;;;;4.43;1.00;;;;;;;-145.18;100.00;46693.59;4987199;28;20044;-66
2022/11/17 08:46:13;;;;;;;6.27;0.80;;;;;;;-145.18;100.00;46691.66;4991206;28;20042;-66
2022/11/17 08:48:38;;;;;;;14.57;1.40;;;;;;;-145.18;100.00;46691.66;4990946;28;20475;-68
2022/11/17 08:51:05;;;;;;;3.00;0.80;;;;;;;-145.18;100.00;46685.78;4990957;28;20291;-66
2022/11/17 08:53:31;;;;;;;7.13;1.30;;;;;;;-145.18;100.00;46683.84;4991317;28;20033;-69
2022/11/17 08:55:56;;;;;;;3.73;1.10;;;;;;;-145.18;100.00;46685.78;4988121;28;20284;-69
2022/11/17 08:58:21;;;;;;;7.67;1.10;;;;;;;-145.18;100.00;46687.75;4991225;28;20490;-69
2022/11/17 09:00:47;;;;;;;5.67;1.20;;;;;;;-145.18;100.00;46695.56;4991188;28;20246;-66
2022/11/17 09:03:13;;;;;;;3.83;1.07;;;;;;;-145.18;100.00;46683.84;4981072;28;20082;-66
2022/11/17 09:05:40;;;;;;;4.60;1.53;;;;;;;-145.18;100.00;46691.66;4991414;28;20042;-66
2022/11/17 09:08:06;;;;;;;5.17;1.57;;;;;;;-145.18;100.00;46685.78;4975182;28;20096;-67
2022/11/17 09:10:32;;;;;;;7.97;1.20;;;;;;;-145.18;100.00;46689.69;4991155;28;20283;-69
2022/11/17 09:12:58;;;;;;;3.43;1.30;;;;;;;-145.18;100.00;46693.59;4990726;28;20276;-69
2022/11/17 09:15:23;;;;;;;5.63;0.90;;;;;;;-145.18;100.00;46697.50;4990236;28;20287;-68
2022/11/17 09:17:49;;;;;;;9.00;2.13;;;;;;;-145.18;100.00;46705.31;4991093;28;20041;-68
2022/11/17 09:20:16;;;;;;;6.90;1.20;;;;;;;-145.18;100.00;46695.56;4990756;28;20069;-67
2022/11/17 09:22:41;;;;;;;3.97;1.07;;;;;;;-145.18;100.00;46691.66;4991160;28;20645;-69
2022/11/17 09:25:07;;;;;;;1.87;0.90;;;;;;;-145.18;100.00;46687.75;4990501;28;20287;-68
2022/11/17 09:27:33;;;;;;;6.07;1.40;;;;;;;-145.18;100.00;46687.75;4991297;28;20492;-68
2022/11/17 09:29:59;;;;;;;6.17;0.93;;;;;;;-145.18;100.00;46697.50;4990319;28;20034;-68
2022/11/17 09:32:25;;;;;;;7.93;1.10;;;;;;;-145.18;100.00;46687.75;4991036;28;20038;-68
2022/11/17 09:34:50;;;;;;;4.73;1.13;;;;;;;-145.18;100.00;46703.38;4990625;28;20295;-68
2022/11/17 09:37:16;;;;;;;2.60;0.80;;;;;;;-145.18;100.00;46689.69;4989882;28;20022;-68
2022/11/17 09:39:41;;;;;;;5.77;1.03;;;;;;;-145.18;100.00;46687.75;4990378;28;20030;-68
2022/11/17 09:42:12;;;;;;;4.90;1.13;;;;;;;-145.18;100.00;46689.69;4990608;28;20042;-68
2022/11/17 09:44:44;;;;;;;7.07;1.10;;;;;;;-145.18;100.00;46685.78;4990842;28;20030;-68
2022/11/17 09:47:23;;;;;;;3.30;0.90;;;;;;;-145.18;100.00;46681.88;4982975;28;20275;-68
2022/11/17 09:49:51;;;;;;;4.40;1.00;;;;;;;-145.18;100.00;46681.88;4990222;28;20665;-68
2022/11/17 09:52:35;;;;;;;10.03;1.10;;;;;;;-145.18;100.00;46697.50;4990820;28;20785;-66
2022/11/17 09:55:11;;;;;;;6.37;1.57;;;;;;;-145.18;100.00;46689.69;4990348;28;20291;-68
2022/11/17 09:58:01;;;;;;;5.22;1.02;;;;;;;-145.18;100.00;46685.78;4990735;28;20279;-68
2022/11/17 10:00:27;;;;;;;7.47;1.03;;;;;;;-145.18;100.00;46683.84;4946230;28;20495;-68
2022/11/17 10:02:53;;;;;;;2.23;0.93;;;;;;;-145.18;100.00;46695.56;4989865;28;20355;-69
2022/11/17 10:05:24;;;;;;;6.70;1.47;;;;;;;-145.18;100.00;46685.78;4990239;28;20395;-68
2022/11/17 10:07:52;;;;;;;7.73;1.00;;;;;;;-145.18;100.00;46687.75;4992043;28;20053;-69
2022/11/17 10:10:34;;;;;;;6.20;1.10;;;;;;;-145.18;100.00;46681.88;4993254;28;20772;-69
2022/11/17 10:13:02;;;;;;;8.63;1.43;;;;;;;-145.18;100.00;46689.69;4994068;28;20264;-68
2022/11/17 10:15:46;;;;;;;7.73;1.20;;;;;;;-145.18;100.00;46685.78;4994156;28;20374;-69
2022/11/17 10:18:13;;;;;;;4.90;1.00;;;;;;;-145.18;100.00;46681.88;4986052;28;20271;-68
2022/11/17 10:20:40;;;;;;;7.63;0.87;;;;;;;-145.18;100.00;46687.75;4993386;28;20320;-68
2022/11/17 10:23:06;;;;;;;6.03;1.60;;;;;;;-145.18;100.00;46689.69;4993925;28;20279;-68
2022/11/17 10:25:40;;;;;;;7.50;1.57;;;;;;;-145.18;100.00;46687.75;4993712;28;20406;-69
2022/11/17 10:28:07;;;;;;;3.57;0.90;;;;;;;-145.18;100.00;46697.50;4993881;28;20029;-69
2022/11/17 10:30:33;;;;;;;8.20;1.23;;;;;;;-145.18;100.00;46697.50;4993556;28;20272;-69
2022/11/17 10:33:00;;;;;;;9.57;1.17;;;;;;;-145.18;100.00;46687.75;4993594;28;20031;-69
2022/11/17 10:35:33;;;;;;;6.37;1.10;;;;;;;-145.18;100.00;46695.56;4993288;28;20491;-69
2022/11/17 10:38:16;;;;;;;8.17;1.67;;;;;;;-145.18;100.00;46693.59;4993493;28;20283;-69
2022/11/17 10:40:41;;;;;;;7.50;1.13;;;;;;;-145.18;100.00;46697.50;4993167;28;20264;-69
2022/11/17 10:43:14;;;;;;;6.83;1.23;;;;;;;-145.18;100.00;46687.75;4993440;28;20276;-69
2022/11/17 10:45:52;;;;;;;8.70;1.20;;;;;;;-145.18;100.00;46695.56;4993405;28;20042;-69
2022/11/17 10:48:29;;;;;;;7.13;1.13;;;;;;;-145.18;100.00;46695.56;4993501;28;20268;-69
2022/11/17 10:51:02;;;;;;;7.47;1.30;;;;;;;-145.18;100.00;46691.66;4992984;28;20303;-69
2022/11/17 10:53:29;;;;;;;7.67;1.77;;;;;;;-145.18;100.00;46691.66;4993229;28;20109;-69
2022/11/17 10:55:59;;;;;;;4.87;1.00;;;;;;;-145.18;100.00;46705.31;4993463;28;20053;-69
2022/11/17 10:58:27;;;;;;;5.50;1.00;;;;;;;-145.18;100.00;46701.41;4993487;28;20264;-69
2022/11/17 11:01:00;;;;;;;7.30;1.10;;;;;;;-145.18;100.00;46705.31;4992960;28;20318;-69
2022/11/17 11:03:34;;;;;;;3.97;1.07;;;;;;;-145.18;100.00;46707.28;4992819;28;20061;-69
2022/11/17 11:06:21;;;;;;;8.07;1.37;;;;;;;-145.18;100.00;46705.31;4992881;28;20304;-69
2022/11/17 11:09:05;;;;;;;6.70;0.83;;;;;;;-145.18;100.00;46699.47;4992943;28;20049;-69
2022/11/17 11:11:48;;;;;;;3.77;0.97;;;;;;;-145.18;100.00;46699.47;4993276;28;20061;-69
2022/11/17 11:14:16;;;;;;;6.53;0.90;;;;;;;-145.18;100.00;46707.28;4992529;28;20498;-67
2022/11/17 11:16:46;;;;;;;4.63;1.10;;;;;;;-145.18;100.00;46707.28;4991610;28;20295;-69
2022/11/17 11:19:14;;;;;;;7.17;1.43;;;;;;;-145.18;100.00;46705.31;4990877;28;20042;-69
2022/11/17 11:21:56;;;;;;;11.40;1.40;;;;;;;-145.18;100.00;46701.41;4992409;28;20387;-69
2022/11/17 11:24:37;;;;;;;6.73;1.37;;;;;;;-145.18;100.00;46703.38;4979134;28;20598;-69
2022/11/17 11:27:29;;;;;;;9.60;1.73;;;;;;;-145.18;100.00;46705.31;4992425;28;20061;-69
2022/11/17 11:30:09;;;;;;;4.07;0.93;;;;;;;-145.18;100.00;46703.38;4988146;28;20042;-69
2022/11/17 11:32:57;;;;;;;8.67;2.00;;;;;;;-145.18;100.00;46703.38;4992731;28;20275;-69
2022/11/17 11:35:25;;;;;;;8.70;1.17;;;;;;;-145.18;100.00;46699.47;4984246;28;20161;-69
2022/11/17 11:37:53;;;;;;;7.07;1.10;;;;;;;-145.18;100.00;46703.38;4992651;28;20031;-69
2022/11/17 11:40:32;;;;;;;3.43;0.70;;;;;;;-145.18;100.00;46703.38;4992120;28;20337;-69
2022/11/17 11:43:00;;;;;;;2.97;1.00;;;;;;;-145.18;100.00;46709.22;4992058;28;20282;-70
2022/11/17 11:45:42;;;;;;;6.20;1.10;;;;;;;-145.18;100.00;46703.38;4992122;28;20041;-70
2022/11/17 11:48:42;;;;;;;7.67;1.57;;;;;;;-145.18;100.00;46703.38;4992418;28;20415;-70
2022/11/17 11:51:13;;;;;;;5.70;1.07;;;;;;;-145.18;100.00;46705.31;4971080;28;20081;-70